createdAt,value
2023-04-18T00:01:47.933Z,16.46
2023-04-18T00:04:19.332Z,16.49
2023-04-18T00:06:50.535Z,16.52
2023-04-18T00:09:18.803Z,16.48
2023-04-18T00:11:47.404Z,16.46
2023-04-18T00:14:15.844Z,16.52
2023-04-18T00:16:44.216Z,16.46
2023-04-18T00:19:12.384Z,16.46
2023-04-18T00:21:45.683Z,16.46
2023-04-18T00:24:14.070Z,16.46
2023-04-18T00:26:42.511Z,16.33
2023-04-18T00:29:10.733Z,16.20
2023-04-18T00:31:39.271Z,16.08
2023-04-18T00:34:07.502Z,15.93
2023-04-18T00:36:35.762Z,15.87
2023-04-18T00:39:04.178Z,15.80
2023-04-18T00:41:32.386Z,15.86
2023-04-18T00:44:00.592Z,15.85
2023-04-18T00:46:28.919Z,15.81
2023-04-18T00:48:57.229Z,15.80
2023-04-18T00:51:26.442Z,15.72
2023-04-18T00:53:55.478Z,15.82
2023-04-18T00:56:24.765Z,15.92
2023-04-18T00:58:53.339Z,16.03
2023-04-18T01:01:22.244Z,16.15
2023-04-18T01:03:50.731Z,16.26
2023-04-18T01:06:19.474Z,16.27
2023-04-18T01:08:48.329Z,16.20
2023-04-18T01:11:16.519Z,16.11
2023-04-18T01:13:44.737Z,16.05
2023-04-18T01:16:13.001Z,16.00
2023-04-18T01:18:41.760Z,15.90
2023-04-18T01:21:10.135Z,15.74
2023-04-18T01:23:38.709Z,15.65
2023-04-18T01:26:07.034Z,15.55
2023-04-18T01:28:37.982Z,15.54
2023-04-18T01:31:06.749Z,15.55
2023-04-18T01:33:34.993Z,15.53
2023-04-18T01:36:03.359Z,15.44
2023-04-18T01:38:32.056Z,15.39
2023-04-18T01:41:00.280Z,15.34
2023-04-18T01:43:28.543Z,15.34
2023-04-18T01:45:56.742Z,15.28
2023-04-18T01:48:24.974Z,15.26
2023-04-18T01:50:53.222Z,15.19
2023-04-18T01:53:21.380Z,15.15
2023-04-18T01:55:51.504Z,15.06
2023-04-18T01:58:23.946Z,14.95
2023-04-18T02:00:56.123Z,14.92
2023-04-18T02:03:24.947Z,14.90
2023-04-18T02:05:53.383Z,14.87
2023-04-18T02:08:21.550Z,14.85
2023-04-18T02:10:49.748Z,14.84
2023-04-18T02:13:17.975Z,14.80
2023-04-18T02:15:49.732Z,14.76
2023-04-18T02:18:19.084Z,14.71
2023-04-18T02:20:47.851Z,14.62
2023-04-18T02:23:16.017Z,14.48
2023-04-18T02:25:44.396Z,14.44
2023-04-18T02:28:12.650Z,14.39
2023-04-18T02:30:40.810Z,14.32
2023-04-18T02:33:09.154Z,14.26
2023-04-18T02:35:39.555Z,14.16
2023-04-18T02:38:07.746Z,14.02
2023-04-18T02:40:35.927Z,13.88
2023-04-18T02:43:04.106Z,13.75
2023-04-18T02:45:33.606Z,13.66
2023-04-18T02:48:02.387Z,13.57
2023-04-18T02:50:30.635Z,13.47
2023-04-18T02:52:58.853Z,13.38
2023-04-18T02:55:27.743Z,13.29
2023-04-18T02:57:56.817Z,13.22
2023-04-18T03:00:25.280Z,13.13
2023-04-18T03:02:54.084Z,13.03
2023-04-18T03:05:23.041Z,12.94
2023-04-18T03:07:51.300Z,12.89
2023-04-18T03:10:19.559Z,12.82
2023-04-18T03:12:48.533Z,12.77
2023-04-18T03:15:16.795Z,12.72
2023-04-18T03:17:45.077Z,12.67
2023-04-18T03:20:13.701Z,12.59
2023-04-18T03:22:41.900Z,12.52
2023-04-18T03:25:10.582Z,12.48
2023-04-18T03:27:38.852Z,12.47
2023-04-18T03:30:07.767Z,12.44
2023-04-18T03:32:36.004Z,12.40
2023-04-18T03:35:04.703Z,12.39
2023-04-18T03:37:32.937Z,12.39
2023-04-18T03:40:01.261Z,12.39
2023-04-18T03:42:29.376Z,12.39
2023-04-18T03:44:57.651Z,12.37
2023-04-18T03:47:26.395Z,12.37
2023-04-18T03:49:55.246Z,12.32
2023-04-18T03:52:23.516Z,12.30
2023-04-18T03:54:51.784Z,12.28
2023-04-18T03:57:20.014Z,12.34
2023-04-18T03:59:48.316Z,12.43
2023-04-18T04:02:16.812Z,12.49
2023-04-18T04:04:45.141Z,12.51
2023-04-18T04:07:13.883Z,12.56
2023-04-18T04:09:42.104Z,12.61
2023-04-18T04:12:10.331Z,12.66
2023-04-18T04:14:38.540Z,12.74
2023-04-18T04:17:07.087Z,12.76
2023-04-18T04:19:35.318Z,12.79
2023-04-18T04:22:03.459Z,12.78
2023-04-18T04:24:33.710Z,12.80
2023-04-18T04:27:02.581Z,12.81
2023-04-18T04:29:30.882Z,12.85
2023-04-18T04:32:00.384Z,12.92
2023-04-18T04:34:28.644Z,12.96
2023-04-18T04:36:56.908Z,12.99
2023-04-18T04:39:25.093Z,13.02
2023-04-18T04:41:54.271Z,13.03
2023-04-18T04:44:22.785Z,13.05
2023-04-18T04:46:51.463Z,13.04
2023-04-18T04:49:20.274Z,13.01
2023-04-18T04:51:48.434Z,12.98
2023-04-18T04:54:16.933Z,12.97
2023-04-18T04:56:45.394Z,12.96
2023-04-18T04:59:13.671Z,12.94
2023-04-18T05:01:42.021Z,12.91
2023-04-18T05:04:10.468Z,12.87
2023-04-18T05:06:40.259Z,12.82
2023-04-18T05:09:08.676Z,12.80
2023-04-18T05:11:36.864Z,12.77
2023-04-18T05:14:05.053Z,12.72
2023-04-18T05:16:33.822Z,12.66
2023-04-18T05:19:01.997Z,12.61
2023-04-18T05:21:30.479Z,12.56
2023-04-18T05:23:58.957Z,12.52
2023-04-18T05:26:27.269Z,12.49
2023-04-18T05:28:55.723Z,12.46
2023-04-18T05:31:23.956Z,12.42
2023-04-18T05:33:52.177Z,12.40
2023-04-18T05:36:20.409Z,12.35
2023-04-18T05:38:48.625Z,12.28
2023-04-18T05:41:16.875Z,12.22
2023-04-18T05:43:54.239Z,12.16
2023-04-18T05:46:26.351Z,12.11
2023-04-18T05:48:54.532Z,12.06
2023-04-18T05:51:22.824Z,12.05
2023-04-18T05:53:51.149Z,12.04
2023-04-18T05:56:19.409Z,12.02
2023-04-18T05:58:48.658Z,12.03
2023-04-18T06:01:17.134Z,12.01
2023-04-18T06:03:46.003Z,11.99
2023-04-18T06:06:14.624Z,11.99
2023-04-18T06:08:42.913Z,11.97
2023-04-18T06:11:11.155Z,11.97
2023-04-18T06:13:39.507Z,12.02
2023-04-18T06:16:08.241Z,12.07
2023-04-18T06:18:36.520Z,12.11
2023-04-18T06:21:04.701Z,12.12
2023-04-18T06:23:32.910Z,12.13
2023-04-18T06:26:01.134Z,12.14
2023-04-18T06:28:29.437Z,12.17
2023-04-18T06:30:57.619Z,12.20
2023-04-18T06:33:25.975Z,12.25
2023-04-18T06:35:54.266Z,12.29
2023-04-18T06:38:22.472Z,12.34
2023-04-18T06:40:51.108Z,12.37
2023-04-18T06:43:19.331Z,12.41
2023-04-18T06:45:47.839Z,12.43
2023-04-18T06:48:16.439Z,12.50
2023-04-18T06:50:44.809Z,12.54
2023-04-18T06:53:13.152Z,12.59
2023-04-18T06:55:41.740Z,12.65
2023-04-18T06:58:10.949Z,12.71
2023-04-18T07:00:39.138Z,12.73
2023-04-18T07:03:11.297Z,12.75
2023-04-18T07:05:42.961Z,12.76
2023-04-18T07:08:11.287Z,12.76
2023-04-18T07:10:39.435Z,12.79
2023-04-18T07:13:07.584Z,12.78
2023-04-18T07:15:36.854Z,12.78
2023-04-18T07:18:05.272Z,12.80
2023-04-18T07:20:33.507Z,12.84
2023-04-18T07:23:01.662Z,12.88
2023-04-18T07:25:29.944Z,12.91
2023-04-18T07:27:58.171Z,12.93
2023-04-18T07:30:27.202Z,12.92
2023-04-18T07:32:55.560Z,12.91
2023-04-18T07:35:23.826Z,12.92
2023-04-18T07:37:53.610Z,12.91
2023-04-18T07:40:22.329Z,12.95
2023-04-18T07:42:50.523Z,12.95
2023-04-18T07:45:18.763Z,12.96
2023-04-18T07:47:47.077Z,12.97
2023-04-18T07:50:15.221Z,12.96
2023-04-18T07:52:43.415Z,12.96
2023-04-18T07:55:11.669Z,12.95
2023-04-18T07:57:39.879Z,12.98
2023-04-18T08:00:08.721Z,12.97
2023-04-18T08:02:37.458Z,12.97
2023-04-18T08:05:06.105Z,12.96
2023-04-18T08:07:34.371Z,12.93
2023-04-18T08:10:02.605Z,12.88
2023-04-18T08:12:31.042Z,12.82
2023-04-18T08:14:59.315Z,12.78
2023-04-18T08:17:27.642Z,12.75
2023-04-18T08:19:56.066Z,12.74
2023-04-18T08:22:24.260Z,12.74
2023-04-18T08:27:25.652Z,12.76
2023-04-18T08:29:53.817Z,12.75
2023-04-18T08:32:22.040Z,12.76
2023-04-18T08:34:50.317Z,12.74
2023-04-18T08:37:18.547Z,12.71
2023-04-18T08:39:47.114Z,12.64
2023-04-18T08:42:20.093Z,12.47
2023-04-18T08:44:48.739Z,12.22
2023-04-18T08:47:17.282Z,12.06
2023-04-18T08:49:47.725Z,11.97
2023-04-18T08:52:17.838Z,11.95
2023-04-18T08:54:47.924Z,11.93
2023-04-18T08:57:31.704Z,11.92
2023-04-18T09:00:02.397Z,11.94
2023-04-18T09:02:44.634Z,11.94
2023-04-18T09:05:20.363Z,11.90
2023-04-18T09:07:50.725Z,11.93
2023-04-18T09:10:33.609Z,11.95
2023-04-18T09:13:04.137Z,11.93
2023-04-18T09:15:32.737Z,11.95
2023-04-18T09:18:03.678Z,11.91
2023-04-18T09:20:38.571Z,11.86
2023-04-18T09:23:11.757Z,11.83
2023-04-18T09:25:47.545Z,11.85
2023-04-18T09:28:35.881Z,11.85
2023-04-18T09:31:16.252Z,11.83
2023-04-18T09:33:57.540Z,11.78
2023-04-18T09:36:28.434Z,11.74
2023-04-18T09:38:57.224Z,11.68
2023-04-18T09:41:25.691Z,11.51
2023-04-18T09:44:15.138Z,11.43
2023-04-18T09:46:46.577Z,11.42
2023-04-18T09:49:15.503Z,11.35
2023-04-18T09:51:45.703Z,11.33
2023-04-18T09:54:18.217Z,11.26
2023-04-18T09:56:48.172Z,11.19
2023-04-18T09:59:21.777Z,11.12
2023-04-18T10:01:52.241Z,11.10
2023-04-18T10:04:21.119Z,11.05
2023-04-18T10:06:50.102Z,10.97
2023-04-18T10:09:18.992Z,10.91
2023-04-18T10:11:47.596Z,10.86
2023-04-18T10:14:18.345Z,10.78
2023-04-18T10:16:47.540Z,10.72
2023-04-18T10:19:30.834Z,10.64
2023-04-18T10:22:01.805Z,10.60
2023-04-18T10:24:55.031Z,10.48
2023-04-18T10:27:50.557Z,10.41
2023-04-18T10:30:19.616Z,10.36
2023-04-18T10:32:47.940Z,10.29
2023-04-18T10:35:16.337Z,10.22
2023-04-18T10:37:53.640Z,10.17
2023-04-18T10:40:36.899Z,10.21
2023-04-18T10:43:05.142Z,10.24
2023-04-18T10:45:37.166Z,10.23
2023-04-18T10:48:30.393Z,10.24
2023-04-18T10:51:19.383Z,10.23
2023-04-18T10:53:55.162Z,10.20
2023-04-18T10:56:23.414Z,10.18
2023-04-18T10:58:53.152Z,10.17
2023-04-18T11:01:32.474Z,10.19
2023-04-18T11:04:01.728Z,10.21
2023-04-18T11:06:31.995Z,10.15
2023-04-18T11:09:20.377Z,10.13
2023-04-18T11:12:05.086Z,10.09
2023-04-18T11:14:46.686Z,10.04
2023-04-18T11:17:24.378Z,10.01
2023-04-18T11:20:02.920Z,10.00
2023-04-18T11:22:31.910Z,9.99
2023-04-18T11:25:02.521Z,9.96
2023-04-18T11:27:30.850Z,9.97
2023-04-18T11:29:59.114Z,9.95
2023-04-18T11:32:27.460Z,9.94
2023-04-18T11:34:56.596Z,9.92
2023-04-18T11:37:24.828Z,9.88
2023-04-18T11:39:55.811Z,9.83
2023-04-18T11:42:33.290Z,9.79
2023-04-18T11:45:01.959Z,9.74
2023-04-18T11:47:35.109Z,9.71
2023-04-18T11:50:07.657Z,9.66
2023-04-18T11:52:37.425Z,9.61
2023-04-18T11:55:18.379Z,9.59
2023-04-18T11:58:00.703Z,9.56
2023-04-18T12:00:42.734Z,9.53
2023-04-18T12:03:20.402Z,9.48
2023-04-18T12:05:48.855Z,9.47
2023-04-18T12:08:21.819Z,9.47
2023-04-18T12:10:54.230Z,9.46
2023-04-18T12:13:27.619Z,9.48
2023-04-18T12:15:55.829Z,9.46
2023-04-18T12:18:25.590Z,9.44
2023-04-18T12:20:55.222Z,9.43
2023-04-18T12:23:43.616Z,9.43
2023-04-18T12:26:19.064Z,9.42
2023-04-18T12:28:48.884Z,9.38
2023-04-18T12:31:17.039Z,9.33
2023-04-18T12:33:45.318Z,9.28
2023-04-18T12:36:14.176Z,9.25
2023-04-18T12:38:42.350Z,9.22
2023-04-18T12:41:10.611Z,9.22
2023-04-18T12:43:38.763Z,9.18
2023-04-18T12:46:07.056Z,9.12
2023-04-18T12:48:35.232Z,9.08
2023-04-18T12:51:03.472Z,9.02
2023-04-18T12:53:31.675Z,8.97
2023-04-18T12:56:00.033Z,8.91
2023-04-18T12:58:28.162Z,8.89
2023-04-18T13:00:57.007Z,8.87
2023-04-18T13:03:25.455Z,8.84
2023-04-18T13:05:57.008Z,8.84
2023-04-18T13:08:25.271Z,8.82
2023-04-18T13:10:53.408Z,8.77
2023-04-18T13:13:21.682Z,8.71
2023-04-18T13:15:49.830Z,8.70
2023-04-18T13:18:17.984Z,8.68
2023-04-18T13:20:46.315Z,8.66
2023-04-18T13:23:14.503Z,8.65
2023-04-18T13:25:42.690Z,8.64
2023-04-18T13:28:11.058Z,8.66
2023-04-18T13:30:39.230Z,8.66
2023-04-18T13:33:07.516Z,8.67
2023-04-18T13:35:36.952Z,8.67
2023-04-18T13:38:05.172Z,8.65
2023-04-18T13:40:34.301Z,8.65
2023-04-18T13:43:02.509Z,8.63
2023-04-18T13:45:30.673Z,8.64
2023-04-18T13:47:58.986Z,8.65
2023-04-18T13:50:27.302Z,8.66
2023-04-18T13:52:55.583Z,8.70
2023-04-18T13:55:23.845Z,8.72
2023-04-18T13:57:52.092Z,8.71
2023-04-18T14:00:21.180Z,8.72
2023-04-18T14:02:50.885Z,8.73
2023-04-18T14:05:19.531Z,8.74
2023-04-18T14:07:49.323Z,8.72
2023-04-18T14:10:17.604Z,8.73
2023-04-18T14:12:45.842Z,8.72
2023-04-18T14:15:14.068Z,8.72
2023-04-18T14:17:44.116Z,8.72
2023-04-18T14:20:16.401Z,8.72
2023-04-18T14:22:44.640Z,8.77
2023-04-18T14:25:13.243Z,8.86
2023-04-18T14:27:41.554Z,8.95
2023-04-18T14:30:11.041Z,9.06
2023-04-18T14:32:39.300Z,9.18
2023-04-18T14:35:10.226Z,9.30
2023-04-18T14:37:38.493Z,9.39
2023-04-18T14:40:08.955Z,9.48
2023-04-18T14:42:37.179Z,9.57
2023-04-18T14:45:06.052Z,9.60
2023-04-18T14:47:35.460Z,9.65
2023-04-18T14:50:03.719Z,9.70
2023-04-18T14:52:32.108Z,9.71
2023-04-18T14:55:00.354Z,9.75
2023-04-18T14:57:31.203Z,9.86
2023-04-18T14:59:59.437Z,9.96
2023-04-18T15:02:27.870Z,10.01
2023-04-18T15:04:56.723Z,10.09
2023-04-18T15:07:24.991Z,10.13
2023-04-18T15:09:53.227Z,10.21
2023-04-18T15:12:21.622Z,10.34
2023-04-18T15:14:49.858Z,10.44
2023-04-18T15:17:18.183Z,10.49
2023-04-18T15:19:46.520Z,10.55
2023-04-18T15:22:14.785Z,10.62
2023-04-18T15:24:42.961Z,10.69
2023-04-18T15:27:11.664Z,10.76
2023-04-18T15:29:40.069Z,10.83
2023-04-18T15:32:08.346Z,10.92
2023-04-18T15:34:37.034Z,10.97
2023-04-18T15:37:05.496Z,11.07
2023-04-18T15:39:33.759Z,11.14
2023-04-18T15:42:03.058Z,11.16
2023-04-18T15:44:34.147Z,11.22
2023-04-18T15:47:02.627Z,11.33
2023-04-18T15:49:30.839Z,11.45
2023-04-18T15:51:59.066Z,11.59
2023-04-18T15:54:27.249Z,11.66
2023-04-18T15:56:56.388Z,11.77
2023-04-18T15:59:24.785Z,11.75
2023-04-18T16:01:53.065Z,11.76
2023-04-18T16:04:21.323Z,11.79
2023-04-18T16:06:49.493Z,11.75
2023-04-18T16:09:17.629Z,11.78
2023-04-18T16:11:46.170Z,11.77
2023-04-18T16:14:14.868Z,11.88
2023-04-18T16:16:43.390Z,11.77
2023-04-18T16:19:12.224Z,11.72
2023-04-18T16:21:40.432Z,11.86
2023-04-18T16:24:08.835Z,12.08
2023-04-18T16:26:37.110Z,12.23
2023-04-18T16:29:05.336Z,12.27
2023-04-18T16:31:35.242Z,12.37
2023-04-18T16:34:04.157Z,12.27
2023-04-18T16:36:35.551Z,12.18
2023-04-18T16:39:03.818Z,12.03
2023-04-18T16:41:32.084Z,11.90
2023-04-18T16:44:00.315Z,11.79
2023-04-18T16:46:32.185Z,11.73
2023-04-18T16:49:02.290Z,11.72
2023-04-18T16:51:30.673Z,11.72
2023-04-18T16:53:58.919Z,11.74
2023-04-18T16:56:27.146Z,11.77
2023-04-18T16:58:55.367Z,11.83
2023-04-18T17:01:23.575Z,11.94
2023-04-18T17:03:52.338Z,11.94
2023-04-18T17:06:20.628Z,12.09
2023-04-18T17:08:49.810Z,12.32
2023-04-18T17:11:18.045Z,12.55
2023-04-18T17:13:46.639Z,12.53
2023-04-18T17:16:14.957Z,12.47
2023-04-18T17:18:43.185Z,12.64
2023-04-18T17:21:14.171Z,12.83
2023-04-18T17:23:43.238Z,12.89
2023-04-18T17:26:11.426Z,12.88
2023-04-18T17:28:39.827Z,13.04
2023-04-18T17:31:08.369Z,13.05
2023-04-18T17:33:36.684Z,12.96
2023-04-18T17:36:07.111Z,12.88
2023-04-18T17:38:35.316Z,12.90
2023-04-18T17:41:05.449Z,12.92
2023-04-18T17:43:33.626Z,12.86
2023-04-18T17:46:04.359Z,12.81
2023-04-18T17:48:33.336Z,12.94
2023-04-18T17:51:01.917Z,13.06
2023-04-18T17:53:32.007Z,13.17
2023-04-18T17:56:00.757Z,13.27
2023-04-18T17:58:29.525Z,13.33
2023-04-18T18:00:57.733Z,13.40
2023-04-18T18:03:26.191Z,13.52
2023-04-18T18:05:55.770Z,13.54
2023-04-18T18:08:24.127Z,13.52
2023-04-18T18:10:52.381Z,13.61
2023-04-18T18:13:20.610Z,13.75
2023-04-18T18:15:49.080Z,13.82
2023-04-18T18:18:17.474Z,13.84
2023-04-18T18:20:45.809Z,13.86
2023-04-18T18:23:14.034Z,13.84
2023-04-18T18:25:42.452Z,13.81
2023-04-18T18:28:10.601Z,13.82
2023-04-18T18:30:39.024Z,13.83
2023-04-18T18:33:07.282Z,13.87
2023-04-18T18:35:35.899Z,13.96
2023-04-18T18:38:04.227Z,14.06
2023-04-18T18:40:32.498Z,14.09
2023-04-18T18:43:00.632Z,14.21
2023-04-18T18:45:28.878Z,14.30
2023-04-18T18:47:57.177Z,14.38
2023-04-18T18:50:25.479Z,14.45
2023-04-18T18:52:53.810Z,14.44
2023-04-18T18:55:22.098Z,14.45
2023-04-18T18:57:50.281Z,14.52
2023-04-18T19:00:18.635Z,14.60
2023-04-18T19:02:47.467Z,14.73
2023-04-18T19:05:15.909Z,14.69
2023-04-18T19:07:44.101Z,14.73
2023-04-18T19:10:12.550Z,14.80
2023-04-18T19:12:40.825Z,14.75
2023-04-18T19:15:09.830Z,14.74
2023-04-18T19:17:38.093Z,14.77
2023-04-18T19:20:06.819Z,14.85
2023-04-18T19:22:35.053Z,15.02
2023-04-18T19:25:04.008Z,15.20
2023-04-18T19:27:32.284Z,15.23
2023-04-18T19:30:00.484Z,15.30
2023-04-18T19:32:28.984Z,15.37
2023-04-18T19:34:57.139Z,15.42
2023-04-18T19:37:25.388Z,15.43
2023-04-18T19:39:53.584Z,15.48
2023-04-18T19:42:21.839Z,15.68
2023-04-18T19:44:50.039Z,15.94
2023-04-18T19:47:18.313Z,16.08
2023-04-18T19:49:46.708Z,16.19
2023-04-18T19:52:14.963Z,16.26
2023-04-18T19:54:43.137Z,16.20
2023-04-18T19:57:11.402Z,16.25
2023-04-18T19:59:39.544Z,16.41
2023-04-18T20:02:07.749Z,16.43
2023-04-18T20:04:37.316Z,16.39
2023-04-18T20:07:05.768Z,16.35
2023-04-18T20:09:33.962Z,16.40
2023-04-18T20:12:02.910Z,16.54
2023-04-18T20:14:31.236Z,16.61
2023-04-18T20:16:59.530Z,16.77
2023-04-18T20:19:27.775Z,16.93
2023-04-18T20:21:56.051Z,16.89
2023-04-18T20:24:24.596Z,16.88
2023-04-18T20:26:52.811Z,16.91
2023-04-18T20:29:21.077Z,16.96
2023-04-18T20:31:49.239Z,17.15
2023-04-18T20:34:17.476Z,17.20
2023-04-18T20:36:47.371Z,17.29
2023-04-18T20:39:15.903Z,17.46
2023-04-18T20:41:51.578Z,17.52
2023-04-18T20:44:23.030Z,17.41
2023-04-18T20:46:55.737Z,17.39
2023-04-18T20:49:24.057Z,17.50
2023-04-18T20:51:52.232Z,17.63
2023-04-18T20:54:20.488Z,17.79
2023-04-18T20:56:49.172Z,17.74
2023-04-18T20:59:17.309Z,17.81
2023-04-18T21:01:46.032Z,17.94
2023-04-18T21:04:14.757Z,18.12
2023-04-18T21:06:43.594Z,18.28
2023-04-18T21:09:11.855Z,18.33
2023-04-18T21:11:40.046Z,18.33
2023-04-18T21:14:08.355Z,17.90
2023-04-18T21:16:37.756Z,17.76
2023-04-18T21:19:07.324Z,17.94
2023-04-18T21:21:36.348Z,17.86
2023-04-18T21:24:04.712Z,17.84
2023-04-18T21:26:32.997Z,17.99
2023-04-18T21:29:03.434Z,17.70
2023-04-18T21:31:33.835Z,17.48
2023-04-18T21:34:04.232Z,17.92
2023-04-18T21:36:32.870Z,18.30
2023-04-18T21:39:01.994Z,18.30
2023-04-18T21:41:30.268Z,18.05
2023-04-18T21:43:58.448Z,18.03
2023-04-18T21:46:26.781Z,18.06
2023-04-18T21:48:54.994Z,18.02
2023-04-18T21:51:23.339Z,18.12
2023-04-18T21:53:51.514Z,18.16
2023-04-18T21:56:19.753Z,17.89
2023-04-18T21:58:48.547Z,17.74
2023-04-18T22:01:16.735Z,17.96
2023-04-18T22:03:45.151Z,18.24
2023-04-18T22:06:14.146Z,18.44
2023-04-18T22:08:42.945Z,18.50
2023-04-18T22:11:12.422Z,18.47
2023-04-18T22:13:40.675Z,18.51
2023-04-18T22:16:10.251Z,18.62
2023-04-18T22:18:38.633Z,18.70
2023-04-18T22:21:07.534Z,18.72
2023-04-18T22:23:35.689Z,18.70
2023-04-18T22:26:03.964Z,18.61
2023-04-18T22:28:33.168Z,18.75
2023-04-18T22:31:01.459Z,18.72
2023-04-18T22:33:29.837Z,18.75
2023-04-18T22:35:58.225Z,18.56
2023-04-18T22:38:26.716Z,18.48
2023-04-18T22:40:55.035Z,18.53
2023-04-18T22:43:25.709Z,18.64
2023-04-18T22:45:54.153Z,18.62
2023-04-18T22:48:22.400Z,18.40
2023-04-18T22:50:50.694Z,18.39
2023-04-18T22:53:18.973Z,18.32
2023-04-18T22:55:47.477Z,18.33
2023-04-18T22:58:15.757Z,18.22
2023-04-18T23:00:43.998Z,18.06
2023-04-18T23:03:12.602Z,17.86
2023-04-18T23:05:42.241Z,17.78
2023-04-18T23:08:12.626Z,17.67
2023-04-18T23:10:40.890Z,17.49
2023-04-18T23:13:09.242Z,17.34
2023-04-18T23:15:37.487Z,17.20
2023-04-18T23:18:05.830Z,17.03
2023-04-18T23:20:34.133Z,16.79
2023-04-18T23:23:02.379Z,16.63
2023-04-18T23:25:34.372Z,16.62
2023-04-18T23:28:02.685Z,16.64
2023-04-18T23:30:31.047Z,16.69
2023-04-18T23:32:59.268Z,16.59
2023-04-18T23:35:29.376Z,16.63
2023-04-18T23:37:57.999Z,16.54
2023-04-18T23:40:26.587Z,16.49
2023-04-18T23:42:54.853Z,16.31
2023-04-18T23:45:25.160Z,16.26
2023-04-18T23:47:53.671Z,16.32
2023-04-18T23:50:22.082Z,16.42
2023-04-18T23:52:50.265Z,16.51
2023-04-18T23:55:18.648Z,16.48
2023-04-18T23:57:46.852Z,16.33
